Terminal Aerodrome Forecast
Issued by NWS Omaha/Valley, NE

Home | Current Version | Previous Version | Graphics & Text | Print | Product List | Glossary On
Versions: 1 2 3 4 5 6 7 8 9 10 11 12 13 14 15 16 17 18
000
FTUS43 KOAX 202320
TAFOFK
TAF
KOFK 202320Z 2100/2124 17012G18KT P6SM FEW250
     FM210400 18012KT P6SM FEW250 WS020/20049KT
     FM211200 19008KT P6SM SCT250
     FM211800 19010KT P6SM BKN250=

USA.gov is the U.S. government's official web portal to all federal, state and local government web resources and services.